sensor_id;sensor_type;location;lat;lon;timestamp;temperature;humidity
10384;DHT22;5238;43.508;4.980;2023-07-13T00:01:50;26.70;91.30
10384;DHT22;5238;43.508;4.980;2023-07-13T00:04:17;26.60;91.30
10384;DHT22;5238;43.508;4.980;2023-07-13T00:06:45;26.60;91.30
10384;DHT22;5238;43.508;4.980;2023-07-13T00:09:13;26.60;91.30
10384;DHT22;5238;43.508;4.980;2023-07-13T00:11:40;26.50;91.30
10384;DHT22;5238;43.508;4.980;2023-07-13T00:14:07;26.50;91.30
10384;DHT22;5238;43.508;4.980;2023-07-13T00:16:38;26.50;91.30
10384;DHT22;5238;43.508;4.980;2023-07-13T00:19:06;26.40;91.30
10384;DHT22;5238;43.508;4.980;2023-07-13T00:21:34;26.40;91.30
10384;DHT22;5238;43.508;4.980;2023-07-13T00:24:01;26.30;91.30
10384;DHT22;5238;43.508;4.980;2023-07-13T00:26:28;26.30;91.30
10384;DHT22;5238;43.508;4.980;2023-07-13T00:28:55;26.30;91.30
10384;DHT22;5238;43.508;4.980;2023-07-13T00:31:22;26.20;91.30
10384;DHT22;5238;43.508;4.980;2023-07-13T00:33:51;26.20;91.30
10384;DHT22;5238;43.508;4.980;2023-07-13T00:36:20;26.20;91.30
10384;DHT22;5238;43.508;4.980;2023-07-13T00:38:47;26.20;91.30
10384;DHT22;5238;43.508;4.980;2023-07-13T00:41:14;26.20;91.30
10384;DHT22;5238;43.508;4.980;2023-07-13T00:43:41;26.20;91.30
10384;DHT22;5238;43.508;4.980;2023-07-13T00:46:26;26.10;91.30
10384;DHT22;5238;43.508;4.980;2023-07-13T00:48:57;26.10;91.30
10384;DHT22;5238;43.508;4.980;2023-07-13T00:51:30;26.10;91.30
10384;DHT22;5238;43.508;4.980;2023-07-13T00:54:00;26.10;91.30
10384;DHT22;5238;43.508;4.980;2023-07-13T00:56:28;26.00;91.30
10384;DHT22;5238;43.508;4.980;2023-07-13T00:58:56;26.10;91.30
10384;DHT22;5238;43.508;4.980;2023-07-13T01:01:24;26.10;91.30
10384;DHT22;5238;43.508;4.980;2023-07-13T01:03:50;26.10;91.30
10384;DHT22;5238;43.508;4.980;2023-07-13T01:06:19;26.10;91.30
10384;DHT22;5238;43.508;4.980;2023-07-13T01:08:46;26.10;91.30
10384;DHT22;5238;43.508;4.980;2023-07-13T01:11:18;26.10;91.30
10384;DHT22;5238;43.508;4.980;2023-07-13T01:13:46;26.00;91.30
10384;DHT22;5238;43.508;4.980;2023-07-13T01:16:17;26.00;91.30
10384;DHT22;5238;43.508;4.980;2023-07-13T01:18:46;26.00;91.30
10384;DHT22;5238;43.508;4.980;2023-07-13T01:21:14;25.90;91.30
10384;DHT22;5238;43.508;4.980;2023-07-13T01:23:41;25.90;91.30
10384;DHT22;5238;43.508;4.980;2023-07-13T01:26:09;25.90;91.30
10384;DHT22;5238;43.508;4.980;2023-07-13T01:28:37;25.90;91.30
10384;DHT22;5238;43.508;4.980;2023-07-13T01:31:04;25.90;91.30
10384;DHT22;5238;43.508;4.980;2023-07-13T01:33:31;25.90;91.30
10384;DHT22;5238;43.508;4.980;2023-07-13T01:36:00;25.90;91.30
10384;DHT22;5238;43.508;4.980;2023-07-13T01:38:29;25.90;91.30
10384;DHT22;5238;43.508;4.980;2023-07-13T01:40:56;25.90;91.30
10384;DHT22;5238;43.508;4.980;2023-07-13T01:43:23;25.80;91.30
10384;DHT22;5238;43.508;4.980;2023-07-13T01:45:50;25.80;91.30
10384;DHT22;5238;43.508;4.980;2023-07-13T01:48:17;25.80;91.30
10384;DHT22;5238;43.508;4.980;2023-07-13T01:50:44;25.80;91.30
10384;DHT22;5238;43.508;4.980;2023-07-13T01:53:11;25.80;91.30
10384;DHT22;5238;43.508;4.980;2023-07-13T01:55:39;25.80;91.30
10384;DHT22;5238;43.508;4.980;2023-07-13T01:58:06;25.80;91.30
10384;DHT22;5238;43.508;4.980;2023-07-13T02:00:33;25.80;91.30
10384;DHT22;5238;43.508;4.980;2023-07-13T02:03:00;25.80;91.30
10384;DHT22;5238;43.508;4.980;2023-07-13T02:05:27;25.80;91.30
10384;DHT22;5238;43.508;4.980;2023-07-13T02:07:54;25.80;91.30
10384;DHT22;5238;43.508;4.980;2023-07-13T02:10:21;25.80;91.30
10384;DHT22;5238;43.508;4.980;2023-07-13T02:12:50;25.70;91.30
10384;DHT22;5238;43.508;4.980;2023-07-13T02:15:18;25.70;91.30
10384;DHT22;5238;43.508;4.980;2023-07-13T02:17:46;25.70;91.30
10384;DHT22;5238;43.508;4.980;2023-07-13T02:20:13;25.70;91.30
10384;DHT22;5238;43.508;4.980;2023-07-13T02:22:39;25.70;91.30
10384;DHT22;5238;43.508;4.980;2023-07-13T02:25:07;25.70;91.30
10384;DHT22;5238;43.508;4.980;2023-07-13T02:27:34;25.70;91.30
10384;DHT22;5238;43.508;4.980;2023-07-13T02:30:03;25.70;91.30
10384;DHT22;5238;43.508;4.980;2023-07-13T02:32:30;25.60;91.30
10384;DHT22;5238;43.508;4.980;2023-07-13T02:34:57;25.60;91.30
10384;DHT22;5238;43.508;4.980;2023-07-13T02:37:24;25.60;91.30
10384;DHT22;5238;43.508;4.980;2023-07-13T02:39:51;25.60;91.30
10384;DHT22;5238;43.508;4.980;2023-07-13T02:42:18;25.60;91.30
10384;DHT22;5238;43.508;4.980;2023-07-13T02:44:44;25.60;91.30
10384;DHT22;5238;43.508;4.980;2023-07-13T02:47:13;25.60;91.30
10384;DHT22;5238;43.508;4.980;2023-07-13T02:49:40;25.60;91.30
10384;DHT22;5238;43.508;4.980;2023-07-13T02:52:07;25.60;91.30
10384;DHT22;5238;43.508;4.980;2023-07-13T02:54:34;25.60;91.30
10384;DHT22;5238;43.508;4.980;2023-07-13T02:57:01;25.60;91.30
10384;DHT22;5238;43.508;4.980;2023-07-13T02:59:28;25.50;91.30
10384;DHT22;5238;43.508;4.980;2023-07-13T03:01:55;25.50;91.30
10384;DHT22;5238;43.508;4.980;2023-07-13T03:04:23;25.50;91.30
10384;DHT22;5238;43.508;4.980;2023-07-13T03:06:52;25.50;91.30
10384;DHT22;5238;43.508;4.980;2023-07-13T03:09:23;25.50;91.30
10384;DHT22;5238;43.508;4.980;2023-07-13T03:11:52;25.50;91.30
10384;DHT22;5238;43.508;4.980;2023-07-13T03:14:19;25.50;91.30
10384;DHT22;5238;43.508;4.980;2023-07-13T03:16:47;25.50;91.30
10384;DHT22;5238;43.508;4.980;2023-07-13T03:19:14;25.50;91.30
10384;DHT22;5238;43.508;4.980;2023-07-13T03:21:42;25.40;91.30
10384;DHT22;5238;43.508;4.980;2023-07-13T03:24:09;25.40;91.30
10384;DHT22;5238;43.508;4.980;2023-07-13T03:26:36;25.40;91.30
10384;DHT22;5238;43.508;4.980;2023-07-13T03:29:03;25.40;91.30
10384;DHT22;5238;43.508;4.980;2023-07-13T03:31:35;25.40;91.30
10384;DHT22;5238;43.508;4.980;2023-07-13T03:34:03;25.40;91.30
10384;DHT22;5238;43.508;4.980;2023-07-13T03:36:31;25.40;91.30
10384;DHT22;5238;43.508;4.980;2023-07-13T03:39:01;25.40;91.30
10384;DHT22;5238;43.508;4.980;2023-07-13T03:41:28;25.40;91.30
10384;DHT22;5238;43.508;4.980;2023-07-13T03:43:56;25.40;91.30
10384;DHT22;5238;43.508;4.980;2023-07-13T03:46:23;25.40;91.30
10384;DHT22;5238;43.508;4.980;2023-07-13T03:48:50;25.40;91.30
10384;DHT22;5238;43.508;4.980;2023-07-13T03:51:18;25.40;91.30
10384;DHT22;5238;43.508;4.980;2023-07-13T03:53:46;25.30;91.30
10384;DHT22;5238;43.508;4.980;2023-07-13T03:56:15;25.30;91.30
10384;DHT22;5238;43.508;4.980;2023-07-13T03:58:44;25.30;91.30
10384;DHT22;5238;43.508;4.980;2023-07-13T04:01:12;25.30;91.30
10384;DHT22;5238;43.508;4.980;2023-07-13T04:03:39;25.30;91.30
10384;DHT22;5238;43.508;4.980;2023-07-13T04:06:16;25.30;91.30
10384;DHT22;5238;43.508;4.980;2023-07-13T04:08:47;25.30;91.30
10384;DHT22;5238;43.508;4.980;2023-07-13T04:11:17;25.20;91.30
10384;DHT22;5238;43.508;4.980;2023-07-13T04:13:45;25.20;91.30
10384;DHT22;5238;43.508;4.980;2023-07-13T04:16:12;25.20;91.30
10384;DHT22;5238;43.508;4.980;2023-07-13T04:18:39;25.20;91.30
10384;DHT22;5238;43.508;4.980;2023-07-13T04:21:07;25.20;91.30
10384;DHT22;5238;43.508;4.980;2023-07-13T04:23:34;25.20;91.30
10384;DHT22;5238;43.508;4.980;2023-07-13T04:26:01;25.20;91.30
10384;DHT22;5238;43.508;4.980;2023-07-13T04:28:30;25.20;91.30
10384;DHT22;5238;43.508;4.980;2023-07-13T04:30:57;25.20;91.30
10384;DHT22;5238;43.508;4.980;2023-07-13T04:33:26;25.20;91.30
10384;DHT22;5238;43.508;4.980;2023-07-13T04:35:54;25.10;91.30
10384;DHT22;5238;43.508;4.980;2023-07-13T04:38:22;25.10;91.30
10384;DHT22;5238;43.508;4.980;2023-07-13T04:40:51;25.10;91.30
10384;DHT22;5238;43.508;4.980;2023-07-13T04:43:18;25.10;91.30
10384;DHT22;5238;43.508;4.980;2023-07-13T04:45:46;25.20;91.30
10384;DHT22;5238;43.508;4.980;2023-07-13T04:48:13;25.20;91.30
10384;DHT22;5238;43.508;4.980;2023-07-13T04:50:40;25.20;91.30
10384;DHT22;5238;43.508;4.980;2023-07-13T04:53:09;25.30;91.30
10384;DHT22;5238;43.508;4.980;2023-07-13T04:55:36;25.30;91.30
10384;DHT22;5238;43.508;4.980;2023-07-13T04:58:03;25.30;91.30
10384;DHT22;5238;43.508;4.980;2023-07-13T05:00:31;25.40;91.30
10384;DHT22;5238;43.508;4.980;2023-07-13T05:02:59;25.40;91.30
10384;DHT22;5238;43.508;4.980;2023-07-13T05:05:27;25.40;91.30
10384;DHT22;5238;43.508;4.980;2023-07-13T05:07:54;25.40;91.30
10384;DHT22;5238;43.508;4.980;2023-07-13T05:10:21;25.50;91.30
10384;DHT22;5238;43.508;4.980;2023-07-13T05:12:49;25.50;91.30
10384;DHT22;5238;43.508;4.980;2023-07-13T05:15:16;25.50;91.30
10384;DHT22;5238;43.508;4.980;2023-07-13T05:17:46;25.60;91.30
10384;DHT22;5238;43.508;4.980;2023-07-13T05:20:16;25.60;91.30
10384;DHT22;5238;43.508;4.980;2023-07-13T05:22:43;25.60;91.30
10384;DHT22;5238;43.508;4.980;2023-07-13T05:25:12;25.70;91.30
10384;DHT22;5238;43.508;4.980;2023-07-13T05:27:39;25.70;91.30
10384;DHT22;5238;43.508;4.980;2023-07-13T05:30:07;25.80;91.30
10384;DHT22;5238;43.508;4.980;2023-07-13T05:32:36;25.80;91.30
10384;DHT22;5238;43.508;4.980;2023-07-13T05:35:04;25.90;91.30
10384;DHT22;5238;43.508;4.980;2023-07-13T05:37:32;25.90;91.30
10384;DHT22;5238;43.508;4.980;2023-07-13T05:39:59;25.90;91.30
10384;DHT22;5238;43.508;4.980;2023-07-13T05:42:26;26.00;91.30
10384;DHT22;5238;43.508;4.980;2023-07-13T05:44:53;26.00;91.30
10384;DHT22;5238;43.508;4.980;2023-07-13T05:47:21;26.00;91.30
10384;DHT22;5238;43.508;4.980;2023-07-13T05:49:48;26.10;91.30
10384;DHT22;5238;43.508;4.980;2023-07-13T05:52:15;26.20;91.30
10384;DHT22;5238;43.508;4.980;2023-07-13T05:54:43;26.20;91.30
10384;DHT22;5238;43.508;4.980;2023-07-13T05:57:10;26.30;91.30
10384;DHT22;5238;43.508;4.980;2023-07-13T05:59:37;26.30;91.30
10384;DHT22;5238;43.508;4.980;2023-07-13T06:02:04;26.40;91.30
10384;DHT22;5238;43.508;4.980;2023-07-13T06:04:32;26.40;91.30
10384;DHT22;5238;43.508;4.980;2023-07-13T06:06:58;26.50;91.30
10384;DHT22;5238;43.508;4.980;2023-07-13T06:09:25;26.50;91.30
10384;DHT22;5238;43.508;4.980;2023-07-13T06:11:54;26.60;91.30
10384;DHT22;5238;43.508;4.980;2023-07-13T06:14:21;26.70;91.30
10384;DHT22;5238;43.508;4.980;2023-07-13T06:16:48;26.80;91.30
10384;DHT22;5238;43.508;4.980;2023-07-13T06:19:15;26.80;91.30
10384;DHT22;5238;43.508;4.980;2023-07-13T06:21:41;26.90;91.30
10384;DHT22;5238;43.508;4.980;2023-07-13T06:24:08;27.00;91.30
10384;DHT22;5238;43.508;4.980;2023-07-13T06:26:35;27.10;91.30
10384;DHT22;5238;43.508;4.980;2023-07-13T06:29:04;27.30;91.30
10384;DHT22;5238;43.508;4.980;2023-07-13T06:31:31;27.40;91.30
10384;DHT22;5238;43.508;4.980;2023-07-13T06:33:58;27.60;91.30
10384;DHT22;5238;43.508;4.980;2023-07-13T06:36:25;27.70;91.30
10384;DHT22;5238;43.508;4.980;2023-07-13T06:38:52;27.90;91.30
10384;DHT22;5238;43.508;4.980;2023-07-13T06:41:19;28.10;91.30
10384;DHT22;5238;43.508;4.980;2023-07-13T06:43:47;28.30;91.30
10384;DHT22;5238;43.508;4.980;2023-07-13T06:46:16;28.40;91.30
10384;DHT22;5238;43.508;4.980;2023-07-13T06:48:42;28.70;91.30
10384;DHT22;5238;43.508;4.980;2023-07-13T06:51:29;28.80;91.30
10384;DHT22;5238;43.508;4.980;2023-07-13T06:53:56;29.10;91.30
10384;DHT22;5238;43.508;4.980;2023-07-13T06:56:23;29.40;91.30
10384;DHT22;5238;43.508;4.980;2023-07-13T06:58:50;29.60;91.30
10384;DHT22;5238;43.508;4.980;2023-07-13T07:01:19;29.90;91.30
10384;DHT22;5238;43.508;4.980;2023-07-13T07:03:47;30.10;91.30
10384;DHT22;5238;43.508;4.980;2023-07-13T07:06:15;30.40;91.30
10384;DHT22;5238;43.508;4.980;2023-07-13T07:08:43;30.70;91.30
10384;DHT22;5238;43.508;4.980;2023-07-13T07:11:12;30.90;91.30
10384;DHT22;5238;43.508;4.980;2023-07-13T07:13:40;31.10;91.30
10384;DHT22;5238;43.508;4.980;2023-07-13T07:16:07;31.30;91.30
10384;DHT22;5238;43.508;4.980;2023-07-13T07:18:35;31.50;91.30
10384;DHT22;5238;43.508;4.980;2023-07-13T07:21:03;31.70;91.30
10384;DHT22;5238;43.508;4.980;2023-07-13T07:23:30;31.90;91.30
10384;DHT22;5238;43.508;4.980;2023-07-13T07:25:56;32.00;91.30
10384;DHT22;5238;43.508;4.980;2023-07-13T07:28:23;32.20;91.30
10384;DHT22;5238;43.508;4.980;2023-07-13T07:30:53;32.30;91.30
10384;DHT22;5238;43.508;4.980;2023-07-13T07:33:21;32.40;91.30
10384;DHT22;5238;43.508;4.980;2023-07-13T07:35:49;32.60;91.30
10384;DHT22;5238;43.508;4.980;2023-07-13T07:38:16;32.70;91.30
10384;DHT22;5238;43.508;4.980;2023-07-13T07:40:43;32.80;91.30
10384;DHT22;5238;43.508;4.980;2023-07-13T07:43:12;32.80;91.30
10384;DHT22;5238;43.508;4.980;2023-07-13T07:45:39;32.90;91.30
10384;DHT22;5238;43.508;4.980;2023-07-13T07:48:07;33.00;91.30
10384;DHT22;5238;43.508;4.980;2023-07-13T07:50:35;33.00;91.30
10384;DHT22;5238;43.508;4.980;2023-07-13T07:53:04;33.00;91.30
10384;DHT22;5238;43.508;4.980;2023-07-13T07:55:33;33.10;91.30
10384;DHT22;5238;43.508;4.980;2023-07-13T07:58:00;33.20;91.30
10384;DHT22;5238;43.508;4.980;2023-07-13T08:00:27;33.30;91.30
10384;DHT22;5238;43.508;4.980;2023-07-13T08:02:56;33.40;91.30
10384;DHT22;5238;43.508;4.980;2023-07-13T08:05:24;33.50;91.30
10384;DHT22;5238;43.508;4.980;2023-07-13T08:07:50;33.60;91.30
10384;DHT22;5238;43.508;4.980;2023-07-13T08:10:19;33.70;91.30
10384;DHT22;5238;43.508;4.980;2023-07-13T08:12:46;33.90;91.30
10384;DHT22;5238;43.508;4.980;2023-07-13T08:15:15;34.10;91.30
10384;DHT22;5238;43.508;4.980;2023-07-13T08:17:42;34.20;91.30
10384;DHT22;5238;43.508;4.980;2023-07-13T08:20:10;34.30;91.30
10384;DHT22;5238;43.508;4.980;2023-07-13T08:22:37;34.50;91.30
10384;DHT22;5238;43.508;4.980;2023-07-13T08:25:04;34.70;91.30
10384;DHT22;5238;43.508;4.980;2023-07-13T08:27:33;34.80;91.30
10384;DHT22;5238;43.508;4.980;2023-07-13T08:30:00;34.90;91.30
10384;DHT22;5238;43.508;4.980;2023-07-13T08:32:27;35.00;91.30
10384;DHT22;5238;43.508;4.980;2023-07-13T08:34:54;35.10;91.30
10384;DHT22;5238;43.508;4.980;2023-07-13T08:37:21;35.30;91.30
10384;DHT22;5238;43.508;4.980;2023-07-13T08:39:48;35.30;91.30
10384;DHT22;5238;43.508;4.980;2023-07-13T08:42:22;35.30;91.30
10384;DHT22;5238;43.508;4.980;2023-07-13T08:44:59;35.40;91.30
10384;DHT22;5238;43.508;4.980;2023-07-13T08:47:32;35.50;91.30
10384;DHT22;5238;43.508;4.980;2023-07-13T08:49:59;35.70;91.30
10384;DHT22;5238;43.508;4.980;2023-07-13T08:52:31;35.90;91.30
10384;DHT22;5238;43.508;4.980;2023-07-13T08:55:04;36.10;91.30
10384;DHT22;5238;43.508;4.980;2023-07-13T08:57:33;36.40;91.30
10384;DHT22;5238;43.508;4.980;2023-07-13T09:00:03;36.50;91.30
10384;DHT22;5238;43.508;4.980;2023-07-13T09:02:41;36.60;91.30
10384;DHT22;5238;43.508;4.980;2023-07-13T09:05:13;36.80;91.30
10384;DHT22;5238;43.508;4.980;2023-07-13T09:07:58;36.80;89.80
10384;DHT22;5238;43.508;4.980;2023-07-13T09:10:30;37.00;89.70
10384;DHT22;5238;43.508;4.980;2023-07-13T09:13:07;37.00;88.80
10384;DHT22;5238;43.508;4.980;2023-07-13T09:15:41;37.00;88.70
10384;DHT22;5238;43.508;4.980;2023-07-13T09:18:19;37.00;88.20
10384;DHT22;5238;43.508;4.980;2023-07-13T09:20:50;37.10;88.20
10384;DHT22;5238;43.508;4.980;2023-07-13T09:23:21;37.10;87.80
10384;DHT22;5238;43.508;4.980;2023-07-13T09:25:50;37.30;87.80
10384;DHT22;5238;43.508;4.980;2023-07-13T09:28:23;37.30;87.80
10384;DHT22;5238;43.508;4.980;2023-07-13T09:31:03;37.30;87.70
10384;DHT22;5238;43.508;4.980;2023-07-13T09:33:31;37.20;87.40
10384;DHT22;5238;43.508;4.980;2023-07-13T09:35:59;37.30;87.60
10384;DHT22;5238;43.508;4.980;2023-07-13T09:38:28;37.40;87.70
10384;DHT22;5238;43.508;4.980;2023-07-13T09:41:14;37.40;87.50
10384;DHT22;5238;43.508;4.980;2023-07-13T09:44:08;37.40;87.30
10384;DHT22;5238;43.508;4.980;2023-07-13T09:46:39;37.60;87.70
10384;DHT22;5238;43.508;4.980;2023-07-13T09:49:08;37.80;88.00
10384;DHT22;5238;43.508;4.980;2023-07-13T09:51:36;38.00;88.60
10384;DHT22;5238;43.508;4.980;2023-07-13T09:54:03;38.20;86.50
10384;DHT22;5238;43.508;4.980;2023-07-13T09:56:30;38.40;85.90
10384;DHT22;5238;43.508;4.980;2023-07-13T09:58:59;38.60;84.30
10384;DHT22;5238;43.508;4.980;2023-07-13T10:01:34;38.70;84.60
10384;DHT22;5238;43.508;4.980;2023-07-13T10:04:10;38.80;83.30
10384;DHT22;5238;43.508;4.980;2023-07-13T10:06:39;38.80;83.00
10384;DHT22;5238;43.508;4.980;2023-07-13T10:09:08;38.80;82.90
10384;DHT22;5238;43.508;4.980;2023-07-13T10:11:35;38.80;83.00
10384;DHT22;5238;43.508;4.980;2023-07-13T10:14:10;38.70;83.90
10384;DHT22;5238;43.508;4.980;2023-07-13T10:16:38;38.80;84.00
10384;DHT22;5238;43.508;4.980;2023-07-13T10:19:14;38.80;83.50
10384;DHT22;5238;43.508;4.980;2023-07-13T10:21:47;38.80;82.60
10384;DHT22;5238;43.508;4.980;2023-07-13T10:24:20;38.70;82.80
10384;DHT22;5238;43.508;4.980;2023-07-13T10:26:52;38.70;82.70
10384;DHT22;5238;43.508;4.980;2023-07-13T10:29:21;38.60;82.40
10384;DHT22;5238;43.508;4.980;2023-07-13T10:31:49;38.50;82.30
10384;DHT22;5238;43.508;4.980;2023-07-13T10:34:17;38.50;82.40
10384;DHT22;5238;43.508;4.980;2023-07-13T10:36:46;38.40;81.90
10384;DHT22;5238;43.508;4.980;2023-07-13T10:39:17;38.40;82.10
10384;DHT22;5238;43.508;4.980;2023-07-13T10:41:47;38.30;82.50
10384;DHT22;5238;43.508;4.980;2023-07-13T10:44:21;38.20;82.70
10384;DHT22;5238;43.508;4.980;2023-07-13T10:46:53;38.10;83.10
10384;DHT22;5238;43.508;4.980;2023-07-13T10:49:22;38.20;83.40
10384;DHT22;5238;43.508;4.980;2023-07-13T10:51:49;38.20;83.90
10384;DHT22;5238;43.508;4.980;2023-07-13T10:54:20;38.40;84.30
10384;DHT22;5238;43.508;4.980;2023-07-13T10:56:53;38.40;83.80
10384;DHT22;5238;43.508;4.980;2023-07-13T10:59:33;38.50;83.00
10384;DHT22;5238;43.508;4.980;2023-07-13T11:02:11;38.50;82.70
10384;DHT22;5238;43.508;4.980;2023-07-13T11:04:44;38.50;82.60
10384;DHT22;5238;43.508;4.980;2023-07-13T11:07:20;38.60;83.30
10384;DHT22;5238;43.508;4.980;2023-07-13T11:09:50;38.60;82.30
10384;DHT22;5238;43.508;4.980;2023-07-13T11:12:48;38.70;82.20
10384;DHT22;5238;43.508;4.980;2023-07-13T11:15:28;38.80;80.70
10384;DHT22;5238;43.508;4.980;2023-07-13T11:17:56;38.90;82.10
10384;DHT22;5238;43.508;4.980;2023-07-13T11:20:47;38.90;81.70
10384;DHT22;5238;43.508;4.980;2023-07-13T11:23:29;38.80;81.70
10384;DHT22;5238;43.508;4.980;2023-07-13T11:25:56;38.80;82.30
10384;DHT22;5238;43.508;4.980;2023-07-13T11:28:27;38.70;81.00
10384;DHT22;5238;43.508;4.980;2023-07-13T11:31:02;38.50;81.60
10384;DHT22;5238;43.508;4.980;2023-07-13T11:33:54;38.50;82.50
10384;DHT22;5238;43.508;4.980;2023-07-13T11:36:30;38.30;81.40
10384;DHT22;5238;43.508;4.980;2023-07-13T11:39:02;38.20;82.00
10384;DHT22;5238;43.508;4.980;2023-07-13T11:41:31;38.10;82.80
10384;DHT22;5238;43.508;4.980;2023-07-13T11:44:10;37.90;83.30
10384;DHT22;5238;43.508;4.980;2023-07-13T11:46:37;37.60;83.90
10384;DHT22;5238;43.508;4.980;2023-07-13T11:49:06;37.40;83.70
10384;DHT22;5238;43.508;4.980;2023-07-13T11:51:36;37.30;85.00
10384;DHT22;5238;43.508;4.980;2023-07-13T11:54:05;37.20;84.40
10384;DHT22;5238;43.508;4.980;2023-07-13T11:56:33;37.00;84.30
10384;DHT22;5238;43.508;4.980;2023-07-13T11:59:06;36.80;84.20
10384;DHT22;5238;43.508;4.980;2023-07-13T12:01:34;36.70;85.10
10384;DHT22;5238;43.508;4.980;2023-07-13T12:04:04;36.50;84.20
10384;DHT22;5238;43.508;4.980;2023-07-13T12:06:34;36.30;84.60
10384;DHT22;5238;43.508;4.980;2023-07-13T12:09:11;36.10;85.90
10384;DHT22;5238;43.508;4.980;2023-07-13T12:11:41;35.90;85.80
10384;DHT22;5238;43.508;4.980;2023-07-13T12:14:14;35.80;86.30
10384;DHT22;5238;43.508;4.980;2023-07-13T12:16:42;35.70;86.90
10384;DHT22;5238;43.508;4.980;2023-07-13T12:19:17;35.50;86.90
10384;DHT22;5238;43.508;4.980;2023-07-13T12:21:47;35.40;86.20
10384;DHT22;5238;43.508;4.980;2023-07-13T12:24:16;35.30;86.60
10384;DHT22;5238;43.508;4.980;2023-07-13T12:26:43;35.10;87.00
10384;DHT22;5238;43.508;4.980;2023-07-13T12:29:16;35.00;86.80
10384;DHT22;5238;43.508;4.980;2023-07-13T12:31:45;34.90;87.30
10384;DHT22;5238;43.508;4.980;2023-07-13T12:34:13;34.80;88.00
10384;DHT22;5238;43.508;4.980;2023-07-13T12:36:48;34.70;87.80
10384;DHT22;5238;43.508;4.980;2023-07-13T12:39:19;34.60;88.00
10384;DHT22;5238;43.508;4.980;2023-07-13T12:41:47;34.40;88.30
10384;DHT22;5238;43.508;4.980;2023-07-13T12:44:16;34.30;88.80
10384;DHT22;5238;43.508;4.980;2023-07-13T12:46:56;34.20;88.30
10384;DHT22;5238;43.508;4.980;2023-07-13T12:49:28;34.20;89.40
10384;DHT22;5238;43.508;4.980;2023-07-13T12:52:01;34.20;89.20
10384;DHT22;5238;43.508;4.980;2023-07-13T12:54:29;34.20;89.30
10384;DHT22;5238;43.508;4.980;2023-07-13T12:56:58;34.20;89.60
10384;DHT22;5238;43.508;4.980;2023-07-13T12:59:30;34.20;89.70
10384;DHT22;5238;43.508;4.980;2023-07-13T13:01:59;34.10;89.60
10384;DHT22;5238;43.508;4.980;2023-07-13T13:04:28;34.10;89.30
10384;DHT22;5238;43.508;4.980;2023-07-13T13:07:05;34.10;90.40
10384;DHT22;5238;43.508;4.980;2023-07-13T13:09:35;34.10;90.10
10384;DHT22;5238;43.508;4.980;2023-07-13T13:12:02;34.10;89.80
10384;DHT22;5238;43.508;4.980;2023-07-13T13:14:31;34.10;90.80
10384;DHT22;5238;43.508;4.980;2023-07-13T13:16:58;34.10;91.10
10384;DHT22;5238;43.508;4.980;2023-07-13T13:19:27;34.10;91.20
10384;DHT22;5238;43.508;4.980;2023-07-13T13:21:56;34.10;91.10
10384;DHT22;5238;43.508;4.980;2023-07-13T13:24:26;34.20;91.30
10384;DHT22;5238;43.508;4.980;2023-07-13T13:26:54;34.20;90.90
10384;DHT22;5238;43.508;4.980;2023-07-13T13:29:24;34.20;90.20
10384;DHT22;5238;43.508;4.980;2023-07-13T13:31:51;34.20;90.50
10384;DHT22;5238;43.508;4.980;2023-07-13T13:34:20;34.20;90.40
10384;DHT22;5238;43.508;4.980;2023-07-13T13:36:49;34.20;91.00
10384;DHT22;5238;43.508;4.980;2023-07-13T13:39:20;34.20;91.30
10384;DHT22;5238;43.508;4.980;2023-07-13T13:41:50;34.20;91.30
10384;DHT22;5238;43.508;4.980;2023-07-13T13:44:19;34.20;91.30
10384;DHT22;5238;43.508;4.980;2023-07-13T13:46:48;34.30;90.60
10384;DHT22;5238;43.508;4.980;2023-07-13T13:49:18;34.40;91.10
10384;DHT22;5238;43.508;4.980;2023-07-13T13:51:48;34.40;90.60
10384;DHT22;5238;43.508;4.980;2023-07-13T13:54:17;34.50;90.50
10384;DHT22;5238;43.508;4.980;2023-07-13T13:56:45;34.40;90.30
10384;DHT22;5238;43.508;4.980;2023-07-13T13:59:14;34.40;91.20
10384;DHT22;5238;43.508;4.980;2023-07-13T14:01:43;34.40;90.50
10384;DHT22;5238;43.508;4.980;2023-07-13T14:04:14;34.40;90.50
10384;DHT22;5238;43.508;4.980;2023-07-13T14:06:42;34.40;89.80
10384;DHT22;5238;43.508;4.980;2023-07-13T14:09:11;34.40;90.40
10384;DHT22;5238;43.508;4.980;2023-07-13T14:11:40;34.40;90.00
10384;DHT22;5238;43.508;4.980;2023-07-13T14:14:11;34.40;89.80
10384;DHT22;5238;43.508;4.980;2023-07-13T14:16:40;34.40;90.10
10384;DHT22;5238;43.508;4.980;2023-07-13T14:19:10;34.40;90.30
10384;DHT22;5238;43.508;4.980;2023-07-13T14:21:40;34.40;90.20
10384;DHT22;5238;43.508;4.980;2023-07-13T14:24:08;34.50;90.10
10384;DHT22;5238;43.508;4.980;2023-07-13T14:26:38;34.50;90.40
10384;DHT22;5238;43.508;4.980;2023-07-13T14:29:12;34.50;89.70
10384;DHT22;5238;43.508;4.980;2023-07-13T14:31:41;34.40;89.40
10384;DHT22;5238;43.508;4.980;2023-07-13T14:34:10;34.40;89.30
10384;DHT22;5238;43.508;4.980;2023-07-13T14:36:39;34.40;89.30
10384;DHT22;5238;43.508;4.980;2023-07-13T14:39:12;34.40;90.20
10384;DHT22;5238;43.508;4.980;2023-07-13T14:41:40;34.40;90.90
10384;DHT22;5238;43.508;4.980;2023-07-13T14:44:13;34.50;90.30
10384;DHT22;5238;43.508;4.980;2023-07-13T14:46:43;34.50;90.20
10384;DHT22;5238;43.508;4.980;2023-07-13T14:49:16;34.50;90.30
10384;DHT22;5238;43.508;4.980;2023-07-13T14:51:48;34.50;90.50
10384;DHT22;5238;43.508;4.980;2023-07-13T14:54:15;34.60;90.10
10384;DHT22;5238;43.508;4.980;2023-07-13T14:56:42;34.50;90.60
10384;DHT22;5238;43.508;4.980;2023-07-13T14:59:09;34.50;90.00
10384;DHT22;5238;43.508;4.980;2023-07-13T15:01:36;34.40;89.30
10384;DHT22;5238;43.508;4.980;2023-07-13T15:04:05;34.40;89.80
10384;DHT22;5238;43.508;4.980;2023-07-13T15:06:55;34.40;89.20
10384;DHT22;5238;43.508;4.980;2023-07-13T15:09:22;34.40;88.70
10384;DHT22;5238;43.508;4.980;2023-07-13T15:11:51;34.40;88.60
10384;DHT22;5238;43.508;4.980;2023-07-13T15:14:18;34.40;89.30
10384;DHT22;5238;43.508;4.980;2023-07-13T15:16:47;34.40;90.50
10384;DHT22;5238;43.508;4.980;2023-07-13T15:19:18;34.40;89.60
10384;DHT22;5238;43.508;4.980;2023-07-13T15:21:46;34.50;89.80
10384;DHT22;5238;43.508;4.980;2023-07-13T15:24:13;34.60;89.60
10384;DHT22;5238;43.508;4.980;2023-07-13T15:26:41;34.60;89.00
10384;DHT22;5238;43.508;4.980;2023-07-13T15:29:10;34.50;88.40
10384;DHT22;5238;43.508;4.980;2023-07-13T15:31:37;34.50;87.90
10384;DHT22;5238;43.508;4.980;2023-07-13T15:34:12;34.40;87.50
10384;DHT22;5238;43.508;4.980;2023-07-13T15:36:40;34.30;87.80
10384;DHT22;5238;43.508;4.980;2023-07-13T15:39:13;34.20;88.30
10384;DHT22;5238;43.508;4.980;2023-07-13T15:41:41;34.20;88.90
10384;DHT22;5238;43.508;4.980;2023-07-13T15:44:22;34.20;89.20
10384;DHT22;5238;43.508;4.980;2023-07-13T15:46:50;34.20;89.20
10384;DHT22;5238;43.508;4.980;2023-07-13T15:49:17;34.20;89.50
10384;DHT22;5238;43.508;4.980;2023-07-13T15:51:46;34.20;89.40
10384;DHT22;5238;43.508;4.980;2023-07-13T15:54:16;34.10;89.30
10384;DHT22;5238;43.508;4.980;2023-07-13T15:56:47;34.10;88.90
10384;DHT22;5238;43.508;4.980;2023-07-13T15:59:15;34.10;89.30